»·PEaware :: N6233G KEMT-KVCV

N6233G :: KEMT-KVCV

FLIGHT INFORMATION

Flight Status: Arrived
Operator: Privately registered:
United States
More flights under this callsign
Pilot: Mark B. (9455)
Aircraft: BEECH AIRCRAFT DEBONAIR BONANZA
(BE33)
More flights by this aircraft type
Origin: KEMT El Monte
United States
Destination: KVCV Socal Logistics
United States
More flights between these airports :: More routes between these airports
Route: +PDZ V442 APLES
File this flight plan on PilotEdge
Remarks: +CW /
Altitude:
(Current/Filed)
7,000ft
Speed:
(Current/Filed)
160kts
Departed: 18-Apr-20 08:49 PM
Arrived: 18-Apr-20 09:44 PM
Distance/Time
Traveled:
45nm/0:55
Distance/Time
To Go:
Arrived

Flight Plot

Page will automatically refresh every two minutes.


Map Options




Map Legend


Flown Route
Filed Route
Departure Airport
Arrival Airport
Navaid (VOR, NDB)
Fix

Horizontal Profiles

Position Reports

Time Latitude Longitude Heading Altitude Ground
Speed
18-Apr-20 19:59 34.086051 -118.033307 25 289ft 0kts
18-Apr-20 20:00 34.086051 -118.033307 25 289ft 0kts
18-Apr-20 20:01 34.086051 -118.033307 25 289ft 0kts
18-Apr-20 20:02 34.086051 -118.033307 25 289ft 0kts
18-Apr-20 20:03 34.086051 -118.033307 25 289ft 0kts
18-Apr-20 20:04 34.086051 -118.033307 25 289ft 0kts
18-Apr-20 20:05 34.086051 -118.033307 25 289ft 0kts
18-Apr-20 20:06 34.086051 -118.033307 25 289ft 0kts
18-Apr-20 20:07 34.086051 -118.033307 25 289ft 0kts
18-Apr-20 20:08 34.086051 -118.033307 25 289ft 0kts
18-Apr-20 20:09 34.086051 -118.033307 25 289ft 0kts
18-Apr-20 20:10 34.086051 -118.033307 25 289ft 0kts
18-Apr-20 20:11 34.086051 -118.033307 25 289ft 0kts
18-Apr-20 20:12 34.086051 -118.033307 25 289ft 0kts
18-Apr-20 20:13 34.086051 -118.033307 25 289ft 0kts
18-Apr-20 20:14 34.086051 -118.033307 25 289ft 0kts
18-Apr-20 20:15 34.086051 -118.033307 25 289ft 0kts
18-Apr-20 20:16 34.086051 -118.033307 25 289ft 0kts
18-Apr-20 20:17 34.086051 -118.033307 25 289ft 0kts
18-Apr-20 20:18 34.086051 -118.033307 25 289ft 0kts
18-Apr-20 20:19 34.086051 -118.033307 25 289ft 0kts
18-Apr-20 20:20 34.086051 -118.033307 25 289ft 0kts
18-Apr-20 20:21 34.086051 -118.033307 25 289ft 0kts
18-Apr-20 20:22 34.086051 -118.033307 25 289ft 0kts
18-Apr-20 20:23 34.086051 -118.033307 25 289ft 0kts
18-Apr-20 20:24 34.086051 -118.033307 25 289ft 0kts
18-Apr-20 20:25 34.086051 -118.033307 25 289ft 0kts
18-Apr-20 20:26 34.086051 -118.033307 25 289ft 0kts
18-Apr-20 20:27 34.086051 -118.033307 25 289ft 0kts
18-Apr-20 20:28 34.086051 -118.033307 25 289ft 0kts
18-Apr-20 20:29 34.086051 -118.033307 25 289ft 0kts
18-Apr-20 20:30 34.086051 -118.033307 25 289ft 0kts
18-Apr-20 20:31 34.086051 -118.033307 25 289ft 0kts
18-Apr-20 20:32 34.086051 -118.033307 25 289ft 0kts
18-Apr-20 20:33 34.086051 -118.033307 25 289ft 0kts
18-Apr-20 20:34 34.086051 -118.033307 25 289ft 0kts
18-Apr-20 20:35 34.086051 -118.033307 25 289ft 0kts
18-Apr-20 20:36 34.086051 -118.033307 25 289ft 0kts
18-Apr-20 20:37 34.086051 -118.033307 25 289ft 0kts
18-Apr-20 20:38 34.086051 -118.033307 25 289ft 0kts
18-Apr-20 20:39 34.086051 -118.033307 25 289ft 0kts
18-Apr-20 20:40 34.086051 -118.033307 25 289ft 0kts
18-Apr-20 20:41 34.086051 -118.033307 25 289ft 0kts
18-Apr-20 20:42 34.086051 -118.033307 25 289ft 0kts
18-Apr-20 20:43 34.087902 -118.032953 27 290ft 17kts
18-Apr-20 20:44 34.090805 -118.031200 326 296ft 1kts
18-Apr-20 20:45 34.090813 -118.031234 258 296ft 0kts
18-Apr-20 20:46 34.090780 -118.031379 252 296ft 4kts
18-Apr-20 20:47 34.090676 -118.032166 213 294ft 11kts
18-Apr-20 20:48 34.077836 -118.039340 204 710ft 94kts
18-Apr-20 20:49 34.058240 -118.044577 147 1680ft 106kts
18-Apr-20 20:50 34.054862 -118.019218 87 2590ft 111kts
18-Apr-20 20:51 34.056239 -117.987245 85 3630ft 113kts
18-Apr-20 20:52 34.059604 -117.944249 84 3909ft 160kts
18-Apr-20 20:53 34.044426 -117.906080 120 4698ft 138kts
18-Apr-20 20:54 34.030402 -117.867336 109 4860ft 162kts
18-Apr-20 20:55 34.016005 -117.823397 112 4861ft 170kts
18-Apr-20 20:56 34.002019 -117.781413 112 4901ft 171kts
18-Apr-20 20:57 33.988437 -117.740398 111 4925ft 171kts
18-Apr-20 20:58 33.974280 -117.697992 112 5278ft 155kts
18-Apr-20 20:59 33.961618 -117.660062 112 5863ft 144kts
18-Apr-20 21:00 33.950381 -117.626732 112 6343ft 145kts
18-Apr-20 21:01 33.939733 -117.595196 112 6817ft 149kts
18-Apr-20 21:02 33.928979 -117.563244 112 7314ft 150kts
18-Apr-20 21:03 33.924443 -117.531620 65 8108ft 134kts
18-Apr-20 21:04 33.943459 -117.514655 27 8735ft 130kts
18-Apr-20 21:05 33.964694 -117.501371 27 8861ft 157kts
18-Apr-20 21:06 33.989513 -117.486311 26 8856ft 174kts
18-Apr-20 21:07 34.014817 -117.471235 26 8851ft 178kts
18-Apr-20 21:08 34.039803 -117.456189 26 8857ft 179kts
18-Apr-20 21:09 34.064868 -117.441245 26 8866ft 179kts
18-Apr-20 21:10 34.091435 -117.425299 26 8874ft 179kts
18-Apr-20 21:11 34.119594 -117.408380 26 8880ft 180kts
18-Apr-20 21:12 34.147756 -117.391400 26 8886ft 180kts
18-Apr-20 21:13 34.180080 -117.371891 26 8890ft 180kts
18-Apr-20 21:14 34.213199 -117.351886 26 8894ft 180kts
18-Apr-20 21:15 34.247047 -117.331467 26 8897ft 180kts
18-Apr-20 21:16 34.282531 -117.310011 26 8900ft 180kts
18-Apr-20 21:17 34.316460 -117.289737 26 8903ft 180kts
18-Apr-20 21:18 34.348371 -117.270004 26 8928ft 179kts
18-Apr-20 21:19 34.382693 -117.256686 3 8969ft 177kts
18-Apr-20 21:20 34.416771 -117.254389 3 8955ft 179kts
18-Apr-20 21:21 34.450734 -117.252221 3 8893ft 183kts
18-Apr-20 21:22 34.488312 -117.249722 3 8545ft 193kts
18-Apr-20 21:23 34.528334 -117.247157 2 8055ft 193kts
18-Apr-20 21:24 34.574925 -117.244234 2 7206ft 193kts
18-Apr-20 21:25 34.622071 -117.241454 0 6433ft 188kts
18-Apr-20 21:26 34.668397 -117.240509 0 5964ft 172kts
18-Apr-20 21:27 34.707197 -117.239840 0 5962ft 137kts
18-Apr-20 21:28 34.736111 -117.239509 0 5966ft 101kts
18-Apr-20 21:30 34.759606 -117.238806 0 5973ft 107kts
18-Apr-20 21:31 34.783333 -117.238350 1 5972ft 108kts
18-Apr-20 21:32 34.802704 -117.251321 277 5974ft 108kts
18-Apr-20 21:33 34.805606 -117.282764 276 5974ft 115kts
18-Apr-20 21:34 34.808343 -117.313882 276 5971ft 110kts
18-Apr-20 21:35 34.811063 -117.344838 276 5972ft 111kts
18-Apr-20 21:36 34.802799 -117.373632 207 5973ft 110kts
18-Apr-20 21:37 34.779182 -117.387493 191 5967ft 111kts
18-Apr-20 21:38 34.751739 -117.388177 179 5972ft 111kts
18-Apr-20 21:39 34.725532 -117.389733 181 5497ft 127kts
18-Apr-20 21:40 34.698204 -117.391576 183 4306ft 114kts
18-Apr-20 21:41 34.675225 -117.390404 174 3816ft 91kts
18-Apr-20 21:42 34.652188 -117.387377 176 3442ft 101kts
18-Apr-20 21:43 34.628983 -117.387011 178 3047ft 90kts
18-Apr-20 21:44 34.616036 -117.386009 98 2820ft 19kts

Navigation Log

Ident Type
Flight plan parsing failed, navigation log unavailable